sensor_id;sensor_type;location;lat;lon;timestamp;temperature;humidity
61339;DHT22;47213;52.362;4.606;2023-08-30T00:07:56;17.10;81.50
61339;DHT22;47213;52.362;4.606;2023-08-30T00:12:56;16.90;81.80
61339;DHT22;47213;52.362;4.606;2023-08-30T00:17:56;17.20;84.30
61339;DHT22;47213;52.362;4.606;2023-08-30T00:22:56;17.10;84.30
61339;DHT22;47213;52.362;4.606;2023-08-30T00:32:56;17.20;84.10
61339;DHT22;47213;52.362;4.606;2023-08-30T00:47:56;17.30;85.90
61339;DHT22;47213;52.362;4.606;2023-08-30T00:52:56;17.40;85.40
61339;DHT22;47213;52.362;4.606;2023-08-30T01:02:57;17.30;86.30
61339;DHT22;47213;52.362;4.606;2023-08-30T01:32:57;17.50;90.50
61339;DHT22;47213;52.362;4.606;2023-08-30T01:52:57;17.40;89.90
61339;DHT22;47213;52.362;4.606;2023-08-30T02:02:57;17.30;90.60
61339;DHT22;47213;52.362;4.606;2023-08-30T02:12:57;17.20;91.40
61339;DHT22;47213;52.362;4.606;2023-08-30T02:17:57;17.40;92.50
61339;DHT22;47213;52.362;4.606;2023-08-30T02:32:57;17.30;93.30
61339;DHT22;47213;52.362;4.606;2023-08-30T02:42:57;17.20;94.30
61339;DHT22;47213;52.362;4.606;2023-08-30T02:52:57;17.10;95.10
61339;DHT22;47213;52.362;4.606;2023-08-30T03:07:57;17.00;96.00
61339;DHT22;47213;52.362;4.606;2023-08-30T03:12:57;16.90;96.40
61339;DHT22;47213;52.362;4.606;2023-08-30T03:17:57;17.00;97.40
61339;DHT22;47213;52.362;4.606;2023-08-30T03:22:57;16.90;97.40
61339;DHT22;47213;52.362;4.606;2023-08-30T03:42:57;16.80;97.60
61339;DHT22;47213;52.362;4.606;2023-08-30T03:47:57;16.90;98.00
61339;DHT22;47213;52.362;4.606;2023-08-30T03:52:57;16.80;98.30
61339;DHT22;47213;52.362;4.606;2023-08-30T04:02:57;16.70;98.10
61339;DHT22;47213;52.362;4.606;2023-08-30T04:12:57;16.60;98.90
61339;DHT22;47213;52.362;4.606;2023-08-30T04:17:57;16.70;99.70
61339;DHT22;47213;52.362;4.606;2023-08-30T04:22:57;16.60;99.90
61339;DHT22;47213;52.362;4.606;2023-08-30T04:42:58;16.40;99.90
61339;DHT22;47213;52.362;4.606;2023-08-30T04:47:57;16.30;99.90
61339;DHT22;47213;52.362;4.606;2023-08-30T04:52:57;16.20;99.90
61339;DHT22;47213;52.362;4.606;2023-08-30T05:07:57;16.10;99.90
61339;DHT22;47213;52.362;4.606;2023-08-30T05:12:57;16.00;99.90
61339;DHT22;47213;52.362;4.606;2023-08-30T05:17:57;16.10;99.90
61339;DHT22;47213;52.362;4.606;2023-08-30T05:27:57;16.00;99.40
61339;DHT22;47213;52.362;4.606;2023-08-30T05:32:57;16.10;99.00
61339;DHT22;47213;52.362;4.606;2023-08-30T05:42:57;15.80;98.70
61339;DHT22;47213;52.362;4.606;2023-08-30T05:47:57;15.90;99.60
61339;DHT22;47213;52.362;4.606;2023-08-30T05:52:57;15.80;99.50
61339;DHT22;47213;52.362;4.606;2023-08-30T06:02:57;15.70;99.90
61339;DHT22;47213;52.362;4.606;2023-08-30T06:07:57;15.50;99.90
61339;DHT22;47213;52.362;4.606;2023-08-30T06:17:57;15.60;99.90
61339;DHT22;47213;52.362;4.606;2023-08-30T06:22:58;15.50;99.90
61339;DHT22;47213;52.362;4.606;2023-08-30T06:27:58;15.40;99.90
61339;DHT22;47213;52.362;4.606;2023-08-30T06:42:57;15.30;99.90
61339;DHT22;47213;52.362;4.606;2023-08-30T06:52:57;15.20;99.90
61339;DHT22;47213;52.362;4.606;2023-08-30T06:57:58;15.40;99.90
61339;DHT22;47213;52.362;4.606;2023-08-30T07:02:57;15.60;99.90
61339;DHT22;47213;52.362;4.606;2023-08-30T07:07:57;15.80;99.90
61339;DHT22;47213;52.362;4.606;2023-08-30T07:17:58;16.00;99.90
61339;DHT22;47213;52.362;4.606;2023-08-30T07:22:58;15.80;99.90
61339;DHT22;47213;52.362;4.606;2023-08-30T07:47:58;15.70;99.90
61339;DHT22;47213;52.362;4.606;2023-08-30T07:52:58;15.60;99.90
61339;DHT22;47213;52.362;4.606;2023-08-30T07:57:58;15.50;99.90
61339;DHT22;47213;52.362;4.606;2023-08-30T08:02:58;15.40;99.90
61339;DHT22;47213;52.362;4.606;2023-08-30T08:07:59;15.60;99.90
61339;DHT22;47213;52.362;4.606;2023-08-30T08:22:58;15.70;99.90
61339;DHT22;47213;52.362;4.606;2023-08-30T08:32:58;15.80;99.90
61339;DHT22;47213;52.362;4.606;2023-08-30T08:37:58;15.90;99.90
61339;DHT22;47213;52.362;4.606;2023-08-30T08:47:58;15.80;99.90
61339;DHT22;47213;52.362;4.606;2023-08-30T08:57:58;16.10;99.90
61339;DHT22;47213;52.362;4.606;2023-08-30T09:02:58;16.30;99.90
61339;DHT22;47213;52.362;4.606;2023-08-30T09:07:58;16.60;99.90
61339;DHT22;47213;52.362;4.606;2023-08-30T09:12:58;16.80;99.90
61339;DHT22;47213;52.362;4.606;2023-08-30T09:17:58;17.20;99.90
61339;DHT22;47213;52.362;4.606;2023-08-30T09:22:58;17.80;99.90
61339;DHT22;47213;52.362;4.606;2023-08-30T09:27:58;18.50;99.90
61339;DHT22;47213;52.362;4.606;2023-08-30T09:33:01;18.70;99.90
61339;DHT22;47213;52.362;4.606;2023-08-30T09:37:58;19.00;99.90
61339;DHT22;47213;52.362;4.606;2023-08-30T09:42:58;19.30;99.90
61339;DHT22;47213;52.362;4.606;2023-08-30T09:47:58;19.60;99.90
61339;DHT22;47213;52.362;4.606;2023-08-30T09:52:58;19.70;99.90
61339;DHT22;47213;52.362;4.606;2023-08-30T09:57:58;19.50;99.90
61339;DHT22;47213;52.362;4.606;2023-08-30T10:02:58;19.90;98.30
61339;DHT22;47213;52.362;4.606;2023-08-30T10:12:58;19.70;97.10
61339;DHT22;47213;52.362;4.606;2023-08-30T10:17:58;19.80;96.30
61339;DHT22;47213;52.362;4.606;2023-08-30T10:22:58;19.90;96.50
61339;DHT22;47213;52.362;4.606;2023-08-30T10:27:58;20.80;96.70
61339;DHT22;47213;52.362;4.606;2023-08-30T10:32:58;21.60;91.20
61339;DHT22;47213;52.362;4.606;2023-08-30T10:37:59;22.80;87.40
61339;DHT22;47213;52.362;4.606;2023-08-30T10:43:00;24.50;75.70
61339;DHT22;47213;52.362;4.606;2023-08-30T10:47:58;24.70;63.80
61339;DHT22;47213;52.362;4.606;2023-08-30T10:52:58;27.30;51.40
61339;DHT22;47213;52.362;4.606;2023-08-30T10:58:00;29.70;37.80
61339;DHT22;47213;52.362;4.606;2023-08-30T11:02:58;28.00;29.80
61339;DHT22;47213;52.362;4.606;2023-08-30T11:07:58;28.10;27.00
61339;DHT22;47213;52.362;4.606;2023-08-30T11:12:58;29.30;28.00
61339;DHT22;47213;52.362;4.606;2023-08-30T11:18:05;31.10;27.50
61339;DHT22;47213;52.362;4.606;2023-08-30T11:22:58;32.60;23.90
61339;DHT22;47213;52.362;4.606;2023-08-30T11:28:02;33.10;21.00
61339;DHT22;47213;52.362;4.606;2023-08-30T11:32:58;31.70;16.50
61339;DHT22;47213;52.362;4.606;2023-08-30T11:37:59;33.00;18.80
61339;DHT22;47213;52.362;4.606;2023-08-30T11:42:58;32.00;17.70
61339;DHT22;47213;52.362;4.606;2023-08-30T11:47:59;32.20;17.70
61339;DHT22;47213;52.362;4.606;2023-08-30T11:52:58;32.10;17.10
61339;DHT22;47213;52.362;4.606;2023-08-30T11:57:58;33.90;17.10
61339;DHT22;47213;52.362;4.606;2023-08-30T12:02:58;34.60;16.90
61339;DHT22;47213;52.362;4.606;2023-08-30T12:07:58;30.00;14.10
61339;DHT22;47213;52.362;4.606;2023-08-30T12:12:58;26.90;18.90
61339;DHT22;47213;52.362;4.606;2023-08-30T12:18:05;25.20;24.60
61339;DHT22;47213;52.362;4.606;2023-08-30T12:22:58;23.40;28.00
61339;DHT22;47213;52.362;4.606;2023-08-30T12:27:58;22.20;34.00
61339;DHT22;47213;52.362;4.606;2023-08-30T12:33:00;22.10;47.90
61339;DHT22;47213;52.362;4.606;2023-08-30T12:37:59;21.90;60.00
61339;DHT22;47213;52.362;4.606;2023-08-30T12:42:58;22.40;58.70
61339;DHT22;47213;52.362;4.606;2023-08-30T12:47:58;22.20;53.00
61339;DHT22;47213;52.362;4.606;2023-08-30T12:52:58;21.40;45.30
61339;DHT22;47213;52.362;4.606;2023-08-30T12:57:58;21.10;49.00
61339;DHT22;47213;52.362;4.606;2023-08-30T13:07:59;21.00;55.40
61339;DHT22;47213;52.362;4.606;2023-08-30T13:12:59;21.20;57.30
61339;DHT22;47213;52.362;4.606;2023-08-30T13:17:58;21.30;66.70
61339;DHT22;47213;52.362;4.606;2023-08-30T13:27:58;21.20;62.50
61339;DHT22;47213;52.362;4.606;2023-08-30T13:32:59;21.50;64.80
61339;DHT22;47213;52.362;4.606;2023-08-30T13:42:59;21.10;65.90
61339;DHT22;47213;52.362;4.606;2023-08-30T13:47:59;21.00;68.80
61339;DHT22;47213;52.362;4.606;2023-08-30T13:52:59;20.70;67.90
61339;DHT22;47213;52.362;4.606;2023-08-30T13:57:59;21.10;62.80
61339;DHT22;47213;52.362;4.606;2023-08-30T14:02:59;20.70;56.60
61339;DHT22;47213;52.362;4.606;2023-08-30T14:12:59;21.20;50.80
61339;DHT22;47213;52.362;4.606;2023-08-30T14:17:59;21.60;49.40
61339;DHT22;47213;52.362;4.606;2023-08-30T14:22:59;21.20;50.20
61339;DHT22;47213;52.362;4.606;2023-08-30T14:27:59;21.60;51.30
61339;DHT22;47213;52.362;4.606;2023-08-30T14:52:59;21.40;45.20
61339;DHT22;47213;52.362;4.606;2023-08-30T14:57:59;21.60;49.00
61339;DHT22;47213;52.362;4.606;2023-08-30T15:02:59;21.40;48.50
61339;DHT22;47213;52.362;4.606;2023-08-30T15:07:59;20.90;47.40
61339;DHT22;47213;52.362;4.606;2023-08-30T15:12:59;21.30;47.70
61339;DHT22;47213;52.362;4.606;2023-08-30T15:17:59;21.40;46.10
61339;DHT22;47213;52.362;4.606;2023-08-30T15:22:59;21.20;44.80
61339;DHT22;47213;52.362;4.606;2023-08-30T15:27:59;21.30;44.60
61339;DHT22;47213;52.362;4.606;2023-08-30T15:32:59;21.00;41.80
61339;DHT22;47213;52.362;4.606;2023-08-30T15:37:59;20.70;44.50
61339;DHT22;47213;52.362;4.606;2023-08-30T15:47:59;20.60;47.70
61339;DHT22;47213;52.362;4.606;2023-08-30T15:57:59;21.00;50.60
61339;DHT22;47213;52.362;4.606;2023-08-30T16:02:59;20.70;48.30
61339;DHT22;47213;52.362;4.606;2023-08-30T16:07:59;20.30;47.00
61339;DHT22;47213;52.362;4.606;2023-08-30T16:17:59;20.20;49.00
61339;DHT22;47213;52.362;4.606;2023-08-30T16:22:59;20.00;47.20
61339;DHT22;47213;52.362;4.606;2023-08-30T16:27:59;20.60;48.90
61339;DHT22;47213;52.362;4.606;2023-08-30T16:32:59;20.20;48.50
61339;DHT22;47213;52.362;4.606;2023-08-30T16:37:59;20.00;48.90
61339;DHT22;47213;52.362;4.606;2023-08-30T16:42:59;19.40;49.50
61339;DHT22;47213;52.362;4.606;2023-08-30T16:47:59;19.70;50.00
61339;DHT22;47213;52.362;4.606;2023-08-30T16:52:59;19.60;50.50
61339;DHT22;47213;52.362;4.606;2023-08-30T17:07:59;19.70;50.70
61339;DHT22;47213;52.362;4.606;2023-08-30T17:12:59;19.40;49.10
61339;DHT22;47213;52.362;4.606;2023-08-30T17:17:59;19.20;49.60
61339;DHT22;47213;52.362;4.606;2023-08-30T17:22:59;19.10;49.70
61339;DHT22;47213;52.362;4.606;2023-08-30T17:27:59;19.30;50.70
61339;DHT22;47213;52.362;4.606;2023-08-30T17:37:59;19.50;49.60
61339;DHT22;47213;52.362;4.606;2023-08-30T17:42:59;19.20;50.10
61339;DHT22;47213;52.362;4.606;2023-08-30T17:47:59;19.00;50.00
61339;DHT22;47213;52.362;4.606;2023-08-30T17:52:59;18.80;50.40
61339;DHT22;47213;52.362;4.606;2023-08-30T17:57:59;18.90;51.10
61339;DHT22;47213;52.362;4.606;2023-08-30T18:02:59;19.00;52.30
61339;DHT22;47213;52.362;4.606;2023-08-30T18:12:59;18.70;52.00
61339;DHT22;47213;52.362;4.606;2023-08-30T18:17:59;18.80;53.90
61339;DHT22;47213;52.362;4.606;2023-08-30T18:22:59;18.50;52.40
61339;DHT22;47213;52.362;4.606;2023-08-30T18:27:59;18.30;54.00
61339;DHT22;47213;52.362;4.606;2023-08-30T18:37:59;18.50;54.00
61339;DHT22;47213;52.362;4.606;2023-08-30T18:42:59;18.30;53.10
61339;DHT22;47213;52.362;4.606;2023-08-30T18:52:59;18.20;52.70
61339;DHT22;47213;52.362;4.606;2023-08-30T18:57:59;18.40;54.00
61339;DHT22;47213;52.362;4.606;2023-08-30T19:02:59;18.20;54.40
61339;DHT22;47213;52.362;4.606;2023-08-30T19:07:59;18.00;52.90
61339;DHT22;47213;52.362;4.606;2023-08-30T19:12:59;17.90;51.70
61339;DHT22;47213;52.362;4.606;2023-08-30T19:18:00;18.20;54.40
61339;DHT22;47213;52.362;4.606;2023-08-30T19:23:00;18.30;54.60
61339;DHT22;47213;52.362;4.606;2023-08-30T19:27:59;18.40;53.90
61339;DHT22;47213;52.362;4.606;2023-08-30T19:32:59;18.00;54.10
61339;DHT22;47213;52.362;4.606;2023-08-30T19:43:00;17.90;54.50
61339;DHT22;47213;52.362;4.606;2023-08-30T19:53:00;17.80;51.10
61339;DHT22;47213;52.362;4.606;2023-08-30T19:58:00;17.90;51.20
61339;DHT22;47213;52.362;4.606;2023-08-30T20:03:00;17.80;49.90
61339;DHT22;47213;52.362;4.606;2023-08-30T20:13:00;17.70;50.50
61339;DHT22;47213;52.362;4.606;2023-08-30T20:23:00;17.60;50.80
61339;DHT22;47213;52.362;4.606;2023-08-30T20:33:00;17.70;51.10
61339;DHT22;47213;52.362;4.606;2023-08-30T20:38:00;17.80;51.10
61339;DHT22;47213;52.362;4.606;2023-08-30T20:43:00;17.60;51.60
61339;DHT22;47213;52.362;4.606;2023-08-30T20:48:00;17.50;52.40
61339;DHT22;47213;52.362;4.606;2023-08-30T20:53:02;17.60;51.90
61339;DHT22;47213;52.362;4.606;2023-08-30T20:58:00;17.80;53.80
61339;DHT22;47213;52.362;4.606;2023-08-30T21:03:01;17.60;52.80
61339;DHT22;47213;52.362;4.606;2023-08-30T21:08:01;17.80;54.40
61339;DHT22;47213;52.362;4.606;2023-08-30T21:13:00;17.30;53.00
61339;DHT22;47213;52.362;4.606;2023-08-30T21:18:00;17.40;52.90
61339;DHT22;47213;52.362;4.606;2023-08-30T21:28:00;17.60;53.00
61339;DHT22;47213;52.362;4.606;2023-08-30T21:33:00;17.30;51.70
61339;DHT22;47213;52.362;4.606;2023-08-30T21:43:00;17.00;52.50
61339;DHT22;47213;52.362;4.606;2023-08-30T21:48:00;17.10;52.90
61339;DHT22;47213;52.362;4.606;2023-08-30T21:53:00;17.20;52.40
61339;DHT22;47213;52.362;4.606;2023-08-30T22:03:00;17.10;51.60
61339;DHT22;47213;52.362;4.606;2023-08-30T22:08:00;17.40;51.90
61339;DHT22;47213;52.362;4.606;2023-08-30T22:23:00;17.20;53.20
61339;DHT22;47213;52.362;4.606;2023-08-30T22:38:00;17.40;53.40
61339;DHT22;47213;52.362;4.606;2023-08-30T22:43:00;17.30;52.00
61339;DHT22;47213;52.362;4.606;2023-08-30T22:53:00;17.10;51.50
61339;DHT22;47213;52.362;4.606;2023-08-30T22:58:00;17.20;51.70
61339;DHT22;47213;52.362;4.606;2023-08-30T23:23:03;17.10;54.90
61339;DHT22;47213;52.362;4.606;2023-08-30T23:28:00;17.20;54.70
61339;DHT22;47213;52.362;4.606;2023-08-30T23:33:00;17.10;54.60
61339;DHT22;47213;52.362;4.606;2023-08-30T23:43:00;17.20;56.40
61339;DHT22;47213;52.362;4.606;2023-08-30T23:48:00;17.10;57.60
61339;DHT22;47213;52.362;4.606;2023-08-30T23:58:00;17.20;61.40
